createdAt,value
2018-11-14T00:00:43.669Z,12.70
2018-11-14T00:03:13.518Z,12.70
2018-11-14T00:05:43.105Z,12.70
2018-11-14T00:08:12.801Z,12.70
2018-11-14T00:10:42.461Z,12.70
2018-11-14T00:13:12.142Z,12.60
2018-11-14T00:15:41.952Z,12.60
2018-11-14T00:18:11.572Z,12.50
2018-11-14T00:20:41.322Z,12.60
2018-11-14T00:23:11.053Z,12.50
2018-11-14T00:25:40.681Z,12.60
2018-11-14T00:28:10.364Z,12.50
2018-11-14T00:30:40.020Z,12.50
2018-11-14T00:33:09.966Z,12.50
2018-11-14T00:35:39.669Z,12.50
2018-11-14T00:38:09.408Z,12.60
2018-11-14T00:40:39.160Z,12.60
2018-11-14T00:43:08.841Z,12.60
2018-11-14T00:45:38.553Z,12.50
2018-11-14T00:48:08.201Z,12.50
2018-11-14T00:50:38.062Z,12.50
2018-11-14T00:53:07.788Z,12.50
2018-11-14T00:55:37.581Z,12.50
2018-11-14T00:58:07.244Z,12.50
2018-11-14T01:00:37.108Z,12.50
2018-11-14T01:03:06.960Z,12.50
2018-11-14T01:05:36.709Z,12.60
2018-11-14T01:08:06.494Z,12.60
2018-11-14T01:10:36.252Z,12.60
2018-11-14T01:13:06.019Z,12.60
2018-11-14T01:15:35.709Z,12.50
2018-11-14T01:18:05.756Z,12.40
2018-11-14T01:20:35.351Z,12.40
2018-11-14T01:23:05.008Z,12.40
2018-11-14T01:25:34.773Z,12.30
2018-11-14T01:28:04.739Z,12.30
2018-11-14T01:30:37.210Z,12.40
2018-11-14T01:33:09.084Z,12.40
2018-11-14T01:35:42.540Z,12.40
2018-11-14T01:38:12.223Z,12.40
2018-11-14T01:40:42.000Z,12.40
2018-11-14T01:43:11.763Z,12.40
2018-11-14T01:45:41.491Z,12.30
2018-11-14T01:48:11.184Z,12.30
2018-11-14T01:50:40.854Z,12.30
2018-11-14T01:53:10.646Z,12.30
2018-11-14T01:55:40.308Z,12.30
2018-11-14T01:58:10.155Z,12.30
2018-11-14T02:00:39.933Z,12.20
2018-11-14T02:03:09.784Z,12.30
2018-11-14T02:05:39.549Z,12.30
2018-11-14T02:08:09.413Z,12.30
2018-11-14T02:10:39.180Z,12.30
2018-11-14T02:13:09.054Z,12.20
2018-11-14T02:15:38.589Z,12.20
2018-11-14T02:18:08.188Z,12.20
2018-11-14T02:20:37.956Z,12.30
2018-11-14T02:23:07.607Z,12.20
2018-11-14T02:25:37.313Z,12.30
2018-11-14T02:28:07.221Z,12.30
2018-11-14T02:30:36.947Z,12.20
2018-11-14T02:33:06.729Z,12.20
2018-11-14T02:35:36.481Z,12.10
2018-11-14T02:38:06.333Z,12.10
2018-11-14T02:40:36.000Z,12.20
2018-11-14T02:43:06.078Z,12.20
2018-11-14T02:45:35.632Z,12.20
2018-11-14T02:48:05.496Z,12.20
2018-11-14T02:50:35.244Z,12.20
2018-11-14T02:53:05.052Z,12.20
2018-11-14T02:55:34.770Z,12.10
2018-11-14T02:58:04.519Z,12.10
2018-11-14T03:00:34.293Z,12.20
2018-11-14T03:03:04.109Z,12.20
2018-11-14T03:05:33.801Z,12.20
2018-11-14T03:08:03.516Z,12.20
2018-11-14T03:10:33.288Z,12.10
2018-11-14T03:13:02.945Z,12.10
2018-11-14T03:15:32.733Z,12.10
2018-11-14T03:18:02.469Z,12.00
2018-11-14T03:20:32.179Z,12.00
2018-11-14T03:23:02.036Z,11.90
2018-11-14T03:25:31.660Z,11.80
2018-11-14T03:28:01.470Z,11.80
2018-11-14T03:30:31.225Z,11.70
2018-11-14T03:33:00.982Z,11.70
2018-11-14T03:35:35.737Z,11.70
2018-11-14T03:38:05.625Z,11.70
2018-11-14T03:40:35.399Z,11.70
2018-11-14T03:43:05.296Z,11.60
2018-11-14T03:45:35.289Z,11.60
2018-11-14T03:48:05.080Z,11.50
2018-11-14T03:50:34.710Z,11.50
2018-11-14T03:53:04.508Z,11.40
2018-11-14T03:55:34.264Z,11.50
2018-11-14T03:58:04.225Z,11.50
2018-11-14T04:00:33.960Z,11.50
2018-11-14T04:03:03.748Z,11.50
2018-11-14T04:05:33.499Z,11.50
2018-11-14T04:08:03.264Z,11.50
2018-11-14T04:10:32.927Z,11.60
2018-11-14T04:13:02.722Z,11.60
2018-11-14T04:15:32.601Z,11.50
2018-11-14T04:18:02.336Z,11.40
2018-11-14T04:20:31.920Z,11.40
2018-11-14T04:23:01.478Z,11.40
2018-11-14T04:25:31.133Z,11.30
2018-11-14T04:28:00.894Z,11.30
2018-11-14T04:30:30.580Z,11.30
2018-11-14T04:33:00.412Z,11.30
2018-11-14T04:35:30.216Z,11.30
2018-11-14T04:37:59.988Z,11.30
2018-11-14T04:40:29.756Z,11.20
2018-11-14T04:42:59.521Z,11.20
2018-11-14T04:45:29.170Z,11.10
2018-11-14T04:47:58.988Z,11.10
2018-11-14T04:50:28.688Z,11.10
2018-11-14T04:52:58.369Z,11.10
2018-11-14T04:55:28.068Z,11.00
2018-11-14T04:57:57.721Z,11.10
2018-11-14T05:00:28.004Z,11.10
2018-11-14T05:02:57.729Z,11.10
2018-11-14T05:05:27.520Z,11.10
2018-11-14T05:07:57.144Z,11.00
2018-11-14T05:10:27.488Z,11.10
2018-11-14T05:12:57.866Z,11.20
2018-11-14T05:15:27.605Z,11.10
2018-11-14T05:17:57.356Z,11.10
2018-11-14T05:20:27.089Z,11.20
2018-11-14T05:22:56.923Z,11.10
2018-11-14T05:25:26.568Z,11.20
2018-11-14T05:27:56.192Z,11.10
2018-11-14T05:30:26.052Z,11.10
2018-11-14T05:32:55.677Z,11.10
2018-11-14T05:35:25.274Z,11.20
2018-11-14T05:37:54.819Z,11.20
2018-11-14T05:40:24.669Z,11.10
2018-11-14T05:42:54.445Z,11.10
2018-11-14T05:45:25.767Z,11.10
2018-11-14T05:47:55.349Z,11.10
2018-11-14T05:50:25.195Z,11.10
2018-11-14T05:52:55.076Z,11.10
2018-11-14T05:55:24.846Z,11.00
2018-11-14T05:57:54.757Z,11.00
2018-11-14T06:00:28.466Z,10.90
2018-11-14T06:02:58.832Z,10.80
2018-11-14T06:05:28.491Z,10.80
2018-11-14T06:07:58.356Z,10.80
2018-11-14T06:10:28.019Z,10.70
2018-11-14T06:12:57.819Z,10.70
2018-11-14T06:15:27.714Z,10.70
2018-11-14T06:17:58.271Z,10.70
2018-11-14T06:20:27.980Z,10.60
2018-11-14T06:22:57.650Z,10.60
2018-11-14T06:25:29.264Z,10.60
2018-11-14T06:27:59.865Z,10.60
2018-11-14T06:30:29.835Z,10.70
2018-11-14T07:00:25.765Z,10.60
2018-11-14T07:02:56.024Z,11.30
2018-11-14T07:05:25.791Z,11.30
2018-11-14T07:07:55.436Z,11.40
2018-11-14T07:10:27.395Z,11.60
2018-11-14T07:13:02.181Z,11.70
2018-11-14T07:15:31.843Z,11.90
2018-11-14T07:18:01.755Z,12.00
2018-11-14T07:20:33.756Z,12.10
2018-11-14T07:23:03.525Z,12.10
2018-11-14T07:25:33.287Z,12.10
2018-11-14T07:28:02.952Z,12.20
2018-11-14T07:30:33.358Z,12.30
2018-11-14T07:33:06.225Z,12.40
2018-11-14T07:35:36.020Z,12.40
2018-11-14T07:38:46.545Z,12.30
2018-11-14T07:41:22.192Z,12.30
2018-11-14T07:43:51.976Z,12.40
2018-11-14T07:46:22.138Z,12.50
2018-11-14T07:48:52.156Z,12.60
2018-11-14T07:51:22.056Z,12.70
2018-11-14T07:53:51.912Z,12.70
2018-11-14T07:56:21.715Z,12.90
2018-11-14T07:58:51.642Z,13.10
2018-11-14T08:01:21.440Z,13.20
2018-11-14T08:03:51.192Z,13.40
2018-11-14T08:06:21.131Z,14.10
2018-11-14T08:08:50.888Z,15.10
2018-11-14T08:11:20.650Z,15.90
2018-11-14T08:13:50.725Z,16.50
2018-11-14T08:16:20.593Z,16.90
2018-11-14T08:18:50.418Z,17.00
2018-11-14T08:21:20.214Z,17.00
2018-11-14T08:23:49.966Z,17.20
2018-11-14T08:26:19.740Z,17.40
2018-11-14T08:28:49.594Z,17.50
2018-11-14T08:31:19.257Z,17.70
2018-11-14T08:33:49.013Z,17.90
2018-11-14T08:36:18.673Z,18.10
2018-11-14T08:38:48.252Z,18.20
2018-11-14T08:41:18.768Z,18.40
2018-11-14T08:43:48.725Z,18.50
2018-11-14T08:46:18.438Z,18.40
2018-11-14T08:48:48.190Z,18.50
2018-11-14T08:51:17.849Z,18.70
2018-11-14T08:53:47.549Z,18.80
2018-11-14T08:56:17.368Z,18.80
2018-11-14T08:58:47.090Z,18.80
2018-11-14T09:01:16.945Z,19.00
2018-11-14T09:03:46.692Z,19.20
2018-11-14T09:06:16.629Z,19.10
2018-11-14T09:08:46.400Z,18.90
2018-11-14T09:11:16.247Z,18.60
2018-11-14T09:13:45.963Z,18.40
2018-11-14T09:16:15.877Z,18.30
2018-11-14T09:18:45.735Z,18.10
2018-11-14T09:21:15.268Z,18.00
2018-11-14T09:23:45.004Z,18.00
2018-11-14T09:26:14.659Z,18.10
2018-11-14T09:28:44.416Z,18.10
2018-11-14T09:31:14.318Z,18.20
2018-11-14T09:33:44.144Z,18.40
2018-11-14T09:36:13.929Z,18.70
2018-11-14T09:38:43.665Z,18.80
2018-11-14T09:41:13.483Z,18.50
2018-11-14T09:43:43.296Z,18.10
2018-11-14T09:46:13.076Z,17.80
2018-11-14T09:48:42.866Z,17.50
2018-11-14T09:51:12.437Z,17.10
2018-11-14T09:53:42.197Z,16.90
2018-11-14T09:56:11.958Z,16.70
2018-11-14T09:58:41.762Z,16.60
2018-11-14T10:01:11.490Z,16.50
2018-11-14T10:03:41.188Z,16.50
2018-11-14T10:06:11.002Z,16.80
2018-11-14T10:08:40.598Z,16.90
2018-11-14T10:11:10.313Z,16.80
2018-11-14T10:13:40.017Z,16.60
2018-11-14T10:16:09.665Z,16.40
2018-11-14T10:18:39.537Z,16.00
2018-11-14T10:21:09.421Z,15.70
2018-11-14T10:23:39.132Z,15.40
2018-11-14T10:26:08.674Z,15.20
2018-11-14T10:28:38.650Z,15.20
2018-11-14T10:31:08.507Z,15.20
2018-11-14T10:33:38.204Z,15.30
2018-11-14T10:36:08.021Z,15.30
2018-11-14T10:38:37.888Z,15.20
2018-11-14T10:41:07.624Z,15.20
2018-11-14T10:43:37.316Z,15.20
2018-11-14T10:46:07.286Z,15.40
2018-11-14T10:48:37.142Z,15.40
2018-11-14T10:51:06.981Z,15.50
2018-11-14T10:53:36.868Z,15.40
2018-11-14T10:56:06.965Z,15.40
2018-11-14T10:58:36.741Z,15.30
2018-11-14T11:02:10.357Z,15.40
2018-11-14T11:04:44.998Z,15.40
2018-11-14T11:07:19.941Z,15.40
2018-11-14T11:09:54.532Z,15.40
2018-11-14T11:13:27.330Z,15.40
2018-11-14T11:16:02.204Z,15.40
2018-11-14T11:18:33.330Z,15.50
2018-11-14T11:21:03.228Z,15.50
2018-11-14T11:23:33.210Z,15.50
2018-11-14T11:26:02.872Z,15.40
2018-11-14T11:28:32.699Z,15.30
2018-11-14T11:31:02.470Z,15.30
2018-11-14T11:33:32.237Z,15.20
2018-11-14T11:36:02.005Z,15.20
2018-11-14T11:38:31.713Z,15.30
2018-11-14T11:41:01.505Z,15.30
2018-11-14T11:43:31.284Z,15.20
2018-11-14T11:46:01.040Z,15.20
2018-11-14T11:48:30.698Z,15.10
2018-11-14T11:51:00.424Z,15.10
2018-11-14T11:53:30.365Z,15.00
2018-11-14T11:56:02.911Z,15.00
2018-11-14T11:58:33.801Z,15.00
2018-11-14T12:01:06.096Z,14.90
2018-11-14T12:03:38.430Z,14.90
2018-11-14T12:06:11.549Z,14.90
2018-11-14T12:08:44.115Z,14.90
2018-11-14T12:11:17.037Z,14.90
2018-11-14T12:13:46.971Z,14.90
2018-11-14T12:16:16.556Z,15.00
2018-11-14T12:18:46.163Z,14.90
2018-11-14T12:21:15.905Z,15.00
2018-11-14T12:23:45.654Z,14.90
2018-11-14T12:26:15.376Z,15.00
2018-11-14T12:28:45.055Z,15.00
2018-11-14T12:31:14.931Z,15.10
2018-11-14T12:33:44.555Z,15.10
2018-11-14T12:36:14.265Z,15.10
2018-11-14T12:38:44.062Z,15.00
2018-11-14T12:41:13.973Z,15.00
2018-11-14T12:43:43.703Z,15.00
2018-11-14T12:46:13.612Z,15.00
2018-11-14T12:48:43.304Z,15.10
2018-11-14T12:51:12.996Z,15.10
2018-11-14T12:53:42.737Z,15.00
2018-11-14T12:56:12.624Z,15.00
2018-11-14T12:58:42.289Z,14.90
2018-11-14T13:01:12.038Z,14.90
2018-11-14T13:03:41.597Z,14.90
2018-11-14T13:06:11.405Z,14.90
2018-11-14T13:08:41.161Z,14.80
2018-11-14T13:11:10.816Z,14.70
2018-11-14T13:13:49.276Z,14.70
2018-11-14T13:16:19.287Z,14.70
2018-11-14T13:18:48.971Z,14.80
2018-11-14T13:21:18.825Z,14.80
2018-11-14T13:23:48.388Z,14.80
2018-11-14T13:26:18.077Z,14.80
2018-11-14T13:28:47.953Z,14.80
2018-11-14T13:31:17.605Z,14.80
2018-11-14T13:33:47.319Z,14.70
2018-11-14T13:36:17.121Z,14.60
2018-11-14T13:38:46.725Z,14.60
2018-11-14T13:41:16.569Z,14.60
2018-11-14T13:43:46.341Z,14.50
2018-11-14T13:46:16.136Z,14.40
2018-11-14T13:48:45.726Z,14.30
2018-11-14T13:51:15.456Z,14.30
2018-11-14T13:53:45.084Z,14.20
2018-11-14T13:58:43.884Z,14.20
2018-11-14T14:01:13.749Z,14.10
2018-11-14T14:03:43.556Z,14.00
2018-11-14T14:06:13.401Z,14.00
2018-11-14T14:08:43.066Z,13.90
2018-11-14T14:11:12.623Z,13.80
2018-11-14T14:13:47.268Z,13.80
2018-11-14T14:16:16.952Z,13.80
2018-11-14T14:18:46.776Z,13.80
2018-11-14T14:21:16.304Z,13.80
2018-11-14T14:23:45.992Z,13.80
2018-11-14T14:26:15.748Z,13.70
2018-11-14T14:28:45.456Z,13.70
2018-11-14T14:31:15.330Z,13.70
2018-11-14T14:33:44.976Z,13.60
2018-11-14T14:36:14.688Z,13.60
2018-11-14T14:38:44.448Z,13.70
2018-11-14T14:41:14.000Z,13.60
2018-11-14T15:40:54.764Z,13.50
2018-11-14T15:43:24.668Z,12.40
2018-11-14T15:45:54.878Z,12.40
2018-11-14T15:48:25.888Z,12.30
2018-11-14T15:50:56.078Z,12.30
2018-11-14T15:53:26.235Z,12.30
2018-11-14T15:55:55.606Z,12.30
2018-11-14T15:58:25.049Z,12.30
2018-11-14T16:00:54.496Z,12.20
2018-11-14T16:03:23.868Z,12.10
2018-11-14T16:05:53.699Z,12.00
2018-11-14T16:08:23.072Z,12.00
2018-11-14T16:10:52.691Z,12.10
2018-11-14T16:13:22.353Z,12.00
2018-11-14T16:15:51.902Z,11.90
2018-11-14T16:18:21.454Z,11.80
2018-11-14T16:20:51.152Z,11.60
2018-11-14T16:23:20.548Z,11.50
2018-11-14T16:25:50.177Z,11.50
2018-11-14T16:28:19.797Z,11.40
2018-11-14T16:30:49.647Z,11.30
2018-11-14T16:33:19.262Z,11.40
2018-11-14T16:35:48.625Z,11.30
2018-11-14T16:38:18.267Z,11.30
2018-11-14T16:40:47.856Z,11.30
2018-11-14T16:43:17.654Z,11.20
2018-11-14T16:45:47.020Z,11.20
2018-11-14T16:48:16.449Z,11.20
2018-11-14T17:35:27.599Z,11.30
2018-11-14T17:42:57.300Z,10.60
2018-11-14T17:45:28.093Z,10.30
2018-11-14T17:47:57.939Z,10.20
2018-11-14T17:50:30.031Z,10.20
2018-11-14T17:53:00.232Z,10.10
2018-11-14T17:55:29.832Z,10.10
2018-11-14T17:57:59.541Z,9.90
2018-11-14T18:00:30.144Z,9.80
2018-11-14T18:03:00.134Z,9.70
2018-11-14T18:05:30.641Z,9.60
2018-11-14T18:08:00.063Z,9.60
2018-11-14T18:10:30.465Z,9.60
2018-11-14T18:13:00.831Z,9.60
2018-11-14T18:15:30.278Z,9.60
2018-11-14T18:18:00.191Z,9.50
2018-11-14T18:20:30.899Z,9.50
2018-11-14T18:23:00.385Z,9.40
2018-11-14T18:25:29.788Z,9.40
2018-11-14T18:27:59.223Z,9.30
2018-11-14T18:30:30.181Z,9.40
2018-11-14T18:33:00.564Z,9.50
2018-11-14T18:35:30.010Z,9.50
2018-11-14T18:38:00.231Z,9.30
2018-11-14T18:40:31.860Z,9.20
2018-11-14T18:43:01.250Z,9.20
2018-11-14T18:45:34.626Z,9.20
2018-11-14T18:48:04.581Z,9.10
2018-11-14T18:50:33.968Z,9.10
2018-11-14T18:53:03.804Z,9.10
2018-11-14T18:55:34.439Z,9.20
2018-11-14T18:58:04.660Z,9.20
2018-11-14T19:00:34.957Z,9.10
2018-11-14T19:03:04.864Z,9.00
2018-11-14T19:05:34.637Z,8.90
2018-11-14T19:08:04.553Z,8.80
2018-11-14T19:10:34.864Z,8.70
2018-11-14T19:13:04.621Z,8.70
2018-11-14T19:15:35.788Z,8.80
2018-11-14T19:18:06.400Z,8.80
2018-11-14T19:20:36.632Z,8.80
2018-11-14T19:23:06.915Z,8.90
2018-11-14T19:25:37.659Z,8.90
2018-11-14T19:28:07.921Z,9.00
2018-11-14T19:30:38.216Z,9.00
2018-11-14T19:33:07.905Z,9.00
2018-11-14T19:35:37.772Z,8.90
2018-11-14T19:38:07.436Z,8.80
2018-11-14T19:40:37.801Z,8.70
2018-11-14T19:43:09.776Z,8.70
2018-11-14T19:45:40.188Z,8.80
2018-11-14T19:48:10.068Z,8.80
2018-11-14T19:50:39.955Z,8.90
2018-11-14T19:53:09.760Z,9.00
2018-11-14T19:55:39.413Z,8.90
2018-11-14T19:58:08.996Z,9.00
2018-11-14T20:00:39.947Z,8.80
2018-11-14T20:03:10.186Z,8.70
2018-11-14T20:05:39.964Z,8.70
2018-11-14T20:08:09.636Z,8.80
2018-11-14T20:10:39.413Z,8.60
2018-11-14T20:13:09.258Z,8.60
2018-11-14T20:15:39.249Z,8.60
2018-11-14T20:18:09.231Z,8.50
2018-11-14T20:20:39.896Z,8.50
2018-11-14T20:23:09.709Z,8.60
2018-11-14T20:25:39.499Z,8.50
2018-11-14T20:28:09.213Z,8.40
2018-11-14T20:30:39.888Z,8.30
2018-11-14T20:33:11.064Z,8.10
2018-11-14T20:35:40.688Z,8.00
2018-11-14T20:38:10.619Z,8.00
2018-11-14T20:40:42.577Z,8.00
2018-11-14T20:43:12.437Z,8.00
2018-11-14T20:45:42.195Z,8.00
2018-11-14T20:48:12.061Z,8.00
2018-11-14T21:15:37.360Z,8.40
2018-11-14T21:18:07.424Z,8.10
2018-11-14T21:20:37.182Z,8.00
2018-11-14T21:23:07.165Z,8.00
2018-11-14T21:25:36.947Z,7.90
2018-11-14T21:28:06.633Z,7.80
2018-11-14T21:30:36.373Z,7.70
2018-11-14T21:33:06.211Z,7.80
2018-11-14T21:35:37.233Z,8.00
2018-11-14T21:38:08.454Z,8.00
2018-11-14T21:40:38.225Z,8.10
2018-11-14T21:45:38.106Z,8.00
2018-11-14T21:48:13.553Z,7.90
2018-11-14T21:50:43.676Z,7.90
2018-11-14T21:53:13.728Z,8.00
2018-11-14T21:55:43.390Z,8.20
2018-11-14T21:58:13.164Z,8.20
2018-11-14T22:00:42.909Z,8.10
2018-11-14T22:03:12.833Z,8.10
2018-11-14T22:05:42.644Z,8.10
2018-11-14T22:08:12.390Z,8.10
2018-11-14T22:10:42.168Z,8.10
2018-11-14T22:13:11.878Z,8.00
2018-11-14T22:15:41.641Z,8.00
2018-11-14T22:18:11.442Z,7.90
2018-11-14T22:20:41.159Z,7.80
2018-11-14T22:23:10.921Z,7.70
2018-11-14T22:25:40.994Z,7.70
2018-11-14T22:28:10.761Z,7.50
2018-11-14T22:30:40.405Z,7.50
2018-11-14T22:33:10.188Z,7.50
2018-11-14T22:35:39.948Z,7.40
2018-11-14T22:38:09.528Z,7.40
2018-11-14T22:40:39.084Z,7.50
2018-11-14T22:43:08.969Z,7.50
2018-11-14T22:45:38.719Z,7.50
2018-11-14T22:48:08.586Z,7.40
2018-11-14T22:50:38.237Z,7.30
2018-11-14T22:53:08.085Z,7.30
2018-11-14T22:55:37.801Z,7.30
2018-11-14T22:58:07.533Z,7.30
2018-11-14T23:00:42.521Z,7.30
2018-11-14T23:03:12.374Z,7.30
2018-11-14T23:05:42.144Z,7.30
2018-11-14T23:08:12.098Z,7.40
2018-11-14T23:10:41.801Z,7.40
2018-11-14T23:13:11.554Z,7.50
2018-11-14T23:15:41.322Z,7.70
2018-11-14T23:18:11.200Z,7.60
2018-11-14T23:20:41.003Z,7.50
2018-11-14T23:23:10.777Z,7.40
2018-11-14T23:25:40.581Z,7.40
2018-11-14T23:28:10.212Z,7.40
2018-11-14T23:30:40.153Z,7.50
2018-11-14T23:33:10.017Z,7.50
2018-11-14T23:35:39.725Z,7.50
2018-11-14T23:38:09.488Z,7.40
2018-11-14T23:40:39.151Z,7.20
2018-11-14T23:43:08.901Z,7.10
2018-11-14T23:45:38.623Z,7.10
2018-11-14T23:48:08.377Z,7.10
2018-11-14T23:50:38.049Z,7.10
2018-11-14T23:53:07.914Z,7.20
2018-11-14T23:55:37.871Z,7.20
2018-11-14T23:58:07.744Z,7.10
